sensor_id;sensor_type;location;lat;lon;timestamp;P1;durP1;ratioP1;P2;durP2;ratioP2
54201;SDS011;40108;53.152;5.844;2023-04-01T00:01:46;12.80;;;10.40;;
54201;SDS011;40108;53.152;5.844;2023-04-01T00:04:12;13.25;;;10.80;;
54201;SDS011;40108;53.152;5.844;2023-04-01T00:06:37;11.38;;;10.18;;
54201;SDS011;40108;53.152;5.844;2023-04-01T00:09:03;13.13;;;11.13;;
54201;SDS011;40108;53.152;5.844;2023-04-01T00:11:29;13.52;;;11.43;;
54201;SDS011;40108;53.152;5.844;2023-04-01T00:13:54;13.23;;;10.73;;
54201;SDS011;40108;53.152;5.844;2023-04-01T00:16:20;16.95;;;11.07;;
54201;SDS011;40108;53.152;5.844;2023-04-01T00:18:46;15.18;;;11.50;;
54201;SDS011;40108;53.152;5.844;2023-04-01T00:21:12;15.75;;;11.38;;
54201;SDS011;40108;53.152;5.844;2023-04-01T00:23:38;16.70;;;12.00;;
54201;SDS011;40108;53.152;5.844;2023-04-01T00:26:04;15.93;;;11.52;;
54201;SDS011;40108;53.152;5.844;2023-04-01T00:28:30;12.98;;;10.98;;
54201;SDS011;40108;53.152;5.844;2023-04-01T00:30:56;12.43;;;10.80;;
54201;SDS011;40108;53.152;5.844;2023-04-01T00:33:21;15.40;;;11.65;;
54201;SDS011;40108;53.152;5.844;2023-04-01T00:35:47;13.85;;;11.75;;
54201;SDS011;40108;53.152;5.844;2023-04-01T00:38:13;16.77;;;12.45;;
54201;SDS011;40108;53.152;5.844;2023-04-01T00:40:41;15.32;;;12.07;;
54201;SDS011;40108;53.152;5.844;2023-04-01T00:43:12;17.98;;;12.57;;
54201;SDS011;40108;53.152;5.844;2023-04-01T00:45:44;19.58;;;13.05;;
54201;SDS011;40108;53.152;5.844;2023-04-01T00:48:22;15.80;;;12.77;;
54201;SDS011;40108;53.152;5.844;2023-04-01T00:50:55;18.60;;;13.23;;
54201;SDS011;40108;53.152;5.844;2023-04-01T00:53:24;15.05;;;12.50;;
54201;SDS011;40108;53.152;5.844;2023-04-01T00:55:53;16.83;;;13.30;;
54201;SDS011;40108;53.152;5.844;2023-04-01T00:58:29;20.90;;;13.30;;
54201;SDS011;40108;53.152;5.844;2023-04-01T01:00:58;15.32;;;12.65;;
54201;SDS011;40108;53.152;5.844;2023-04-01T01:03:25;16.10;;;13.07;;
54201;SDS011;40108;53.152;5.844;2023-04-01T01:08:33;17.63;;;12.83;;
54201;SDS011;40108;53.152;5.844;2023-04-01T01:11:09;19.20;;;13.07;;
54201;SDS011;40108;53.152;5.844;2023-04-01T01:13:43;18.58;;;13.75;;
54201;SDS011;40108;53.152;5.844;2023-04-01T01:16:42;19.00;;;13.18;;
54201;SDS011;40108;53.152;5.844;2023-04-01T01:25:10;16.25;;;12.77;;
54201;SDS011;40108;53.152;5.844;2023-04-01T01:27:49;17.08;;;13.57;;
54201;SDS011;40108;53.152;5.844;2023-04-01T01:35:40;19.33;;;13.48;;
54201;SDS011;40108;53.152;5.844;2023-04-01T01:38:16;18.58;;;13.82;;
54201;SDS011;40108;53.152;5.844;2023-04-01T01:40:47;18.95;;;14.07;;
54201;SDS011;40108;53.152;5.844;2023-04-01T01:45:47;18.42;;;12.63;;
54201;SDS011;40108;53.152;5.844;2023-04-01T01:48:15;20.50;;;12.85;;
54201;SDS011;40108;53.152;5.844;2023-04-01T01:50:43;17.15;;;13.60;;
54201;SDS011;40108;53.152;5.844;2023-04-01T01:53:11;19.27;;;13.70;;
54201;SDS011;40108;53.152;5.844;2023-04-01T01:55:39;21.25;;;13.88;;
54201;SDS011;40108;53.152;5.844;2023-04-01T02:00:55;19.48;;;14.18;;
54201;SDS011;40108;53.152;5.844;2023-04-01T02:03:24;18.65;;;13.93;;
54201;SDS011;40108;53.152;5.844;2023-04-01T02:05:53;20.92;;;14.43;;
54201;SDS011;40108;53.152;5.844;2023-04-01T02:08:25;20.42;;;13.85;;
54201;SDS011;40108;53.152;5.844;2023-04-01T02:11:05;18.55;;;13.57;;
54201;SDS011;40108;53.152;5.844;2023-04-01T02:13:45;15.20;;;12.80;;
54201;SDS011;40108;53.152;5.844;2023-04-01T02:16:32;20.10;;;14.13;;
54201;SDS011;40108;53.152;5.844;2023-04-01T02:19:03;22.67;;;13.50;;
54201;SDS011;40108;53.152;5.844;2023-04-01T02:21:33;18.73;;;13.77;;
54201;SDS011;40108;53.152;5.844;2023-04-01T02:24:02;18.98;;;13.63;;
54201;SDS011;40108;53.152;5.844;2023-04-01T02:26:32;18.25;;;12.88;;
54201;SDS011;40108;53.152;5.844;2023-04-01T02:28:59;17.77;;;12.95;;
54201;SDS011;40108;53.152;5.844;2023-04-01T02:31:26;19.15;;;13.90;;
54201;SDS011;40108;53.152;5.844;2023-04-01T02:33:52;17.25;;;13.25;;
54201;SDS011;40108;53.152;5.844;2023-04-01T02:36:19;18.40;;;13.85;;
54201;SDS011;40108;53.152;5.844;2023-04-01T02:38:46;18.25;;;14.45;;
54201;SDS011;40108;53.152;5.844;2023-04-01T02:41:12;16.30;;;13.13;;
54201;SDS011;40108;53.152;5.844;2023-04-01T02:43:38;18.48;;;14.10;;
54201;SDS011;40108;53.152;5.844;2023-04-01T02:46:04;18.60;;;14.07;;
54201;SDS011;40108;53.152;5.844;2023-04-01T02:48:30;19.65;;;13.90;;
54201;SDS011;40108;53.152;5.844;2023-04-01T02:50:56;17.88;;;13.65;;
54201;SDS011;40108;53.152;5.844;2023-04-01T02:53:21;17.45;;;13.25;;
54201;SDS011;40108;53.152;5.844;2023-04-01T02:55:47;18.60;;;14.73;;
54201;SDS011;40108;53.152;5.844;2023-04-01T02:58:15;18.83;;;14.38;;
54201;SDS011;40108;53.152;5.844;2023-04-01T03:00:42;17.77;;;13.77;;
54201;SDS011;40108;53.152;5.844;2023-04-01T03:03:08;20.08;;;13.52;;
54201;SDS011;40108;53.152;5.844;2023-04-01T03:05:33;15.95;;;13.20;;
54201;SDS011;40108;53.152;5.844;2023-04-01T03:07:59;15.63;;;13.25;;
54201;SDS011;40108;53.152;5.844;2023-04-01T03:10:25;17.95;;;13.48;;
54201;SDS011;40108;53.152;5.844;2023-04-01T03:12:51;18.25;;;13.60;;
54201;SDS011;40108;53.152;5.844;2023-04-01T03:15:17;19.73;;;13.48;;
54201;SDS011;40108;53.152;5.844;2023-04-01T03:17:42;18.58;;;13.27;;
54201;SDS011;40108;53.152;5.844;2023-04-01T03:20:09;18.17;;;13.63;;
54201;SDS011;40108;53.152;5.844;2023-04-01T03:22:36;20.00;;;13.45;;
54201;SDS011;40108;53.152;5.844;2023-04-01T03:25:02;16.02;;;13.98;;
54201;SDS011;40108;53.152;5.844;2023-04-01T03:27:28;18.30;;;14.27;;
54201;SDS011;40108;53.152;5.844;2023-04-01T03:29:54;18.10;;;13.88;;
54201;SDS011;40108;53.152;5.844;2023-04-01T03:32:20;18.98;;;14.10;;
54201;SDS011;40108;53.152;5.844;2023-04-01T03:34:46;18.70;;;14.30;;
54201;SDS011;40108;53.152;5.844;2023-04-01T03:37:11;21.88;;;14.98;;
54201;SDS011;40108;53.152;5.844;2023-04-01T03:39:37;19.55;;;14.85;;
54201;SDS011;40108;53.152;5.844;2023-04-01T03:42:03;19.55;;;14.45;;
54201;SDS011;40108;53.152;5.844;2023-04-01T03:44:33;24.55;;;15.73;;
54201;SDS011;40108;53.152;5.844;2023-04-01T03:46:59;23.58;;;16.42;;
54201;SDS011;40108;53.152;5.844;2023-04-01T03:49:25;20.48;;;14.88;;
54201;SDS011;40108;53.152;5.844;2023-04-01T03:51:51;20.70;;;15.23;;
54201;SDS011;40108;53.152;5.844;2023-04-01T03:54:17;21.85;;;15.40;;
54201;SDS011;40108;53.152;5.844;2023-04-01T03:56:45;21.77;;;15.93;;
54201;SDS011;40108;53.152;5.844;2023-04-01T03:59:11;23.70;;;15.85;;
54201;SDS011;40108;53.152;5.844;2023-04-01T04:01:37;23.38;;;16.45;;
54201;SDS011;40108;53.152;5.844;2023-04-01T04:04:03;22.73;;;15.27;;
54201;SDS011;40108;53.152;5.844;2023-04-01T04:06:30;23.63;;;16.23;;
54201;SDS011;40108;53.152;5.844;2023-04-01T04:08:56;21.27;;;15.48;;
54201;SDS011;40108;53.152;5.844;2023-04-01T04:11:22;21.50;;;16.45;;
54201;SDS011;40108;53.152;5.844;2023-04-01T04:13:48;23.70;;;16.30;;
54201;SDS011;40108;53.152;5.844;2023-04-01T04:16:14;22.55;;;16.10;;
54201;SDS011;40108;53.152;5.844;2023-04-01T04:18:41;20.95;;;15.52;;
54201;SDS011;40108;53.152;5.844;2023-04-01T04:21:07;24.98;;;16.40;;
54201;SDS011;40108;53.152;5.844;2023-04-01T04:23:36;29.17;;;16.88;;
54201;SDS011;40108;53.152;5.844;2023-04-01T04:26:06;28.02;;;17.40;;
54201;SDS011;40108;53.152;5.844;2023-04-01T04:28:33;27.55;;;17.35;;
54201;SDS011;40108;53.152;5.844;2023-04-01T04:30:59;29.98;;;18.25;;
54201;SDS011;40108;53.152;5.844;2023-04-01T04:33:25;28.75;;;16.80;;
54201;SDS011;40108;53.152;5.844;2023-04-01T04:35:54;22.73;;;16.00;;
54201;SDS011;40108;53.152;5.844;2023-04-01T04:38:20;23.88;;;16.65;;
54201;SDS011;40108;53.152;5.844;2023-04-01T04:40:46;27.45;;;17.50;;
54201;SDS011;40108;53.152;5.844;2023-04-01T04:43:12;26.70;;;17.23;;
54201;SDS011;40108;53.152;5.844;2023-04-01T04:45:39;25.35;;;17.65;;
54201;SDS011;40108;53.152;5.844;2023-04-01T04:48:07;27.77;;;18.17;;
54201;SDS011;40108;53.152;5.844;2023-04-01T04:50:34;26.85;;;17.13;;
54201;SDS011;40108;53.152;5.844;2023-04-01T04:53:00;26.38;;;17.38;;
54201;SDS011;40108;53.152;5.844;2023-04-01T04:55:26;28.98;;;17.90;;
54201;SDS011;40108;53.152;5.844;2023-04-01T04:57:52;25.25;;;18.50;;
54201;SDS011;40108;53.152;5.844;2023-04-01T05:00:18;30.23;;;19.02;;
54201;SDS011;40108;53.152;5.844;2023-04-01T05:02:43;28.50;;;18.02;;
54201;SDS011;40108;53.152;5.844;2023-04-01T05:05:09;31.17;;;19.13;;
54201;SDS011;40108;53.152;5.844;2023-04-01T05:07:35;32.05;;;18.25;;
54201;SDS011;40108;53.152;5.844;2023-04-01T05:10:01;28.95;;;18.95;;
54201;SDS011;40108;53.152;5.844;2023-04-01T05:12:27;31.70;;;19.42;;
54201;SDS011;40108;53.152;5.844;2023-04-01T05:14:53;33.42;;;20.40;;
54201;SDS011;40108;53.152;5.844;2023-04-01T05:17:19;29.95;;;19.33;;
54201;SDS011;40108;53.152;5.844;2023-04-01T05:19:44;32.05;;;19.75;;
54201;SDS011;40108;53.152;5.844;2023-04-01T05:22:10;31.52;;;20.05;;
54201;SDS011;40108;53.152;5.844;2023-04-01T05:24:36;30.67;;;20.00;;
54201;SDS011;40108;53.152;5.844;2023-04-01T05:27:01;34.08;;;20.55;;
54201;SDS011;40108;53.152;5.844;2023-04-01T05:29:27;36.35;;;21.08;;
54201;SDS011;40108;53.152;5.844;2023-04-01T05:31:53;38.30;;;22.40;;
54201;SDS011;40108;53.152;5.844;2023-04-01T05:34:19;36.85;;;21.38;;
54201;SDS011;40108;53.152;5.844;2023-04-01T05:36:44;37.15;;;22.75;;
54201;SDS011;40108;53.152;5.844;2023-04-01T05:39:10;35.47;;;21.42;;
54201;SDS011;40108;53.152;5.844;2023-04-01T05:41:36;34.25;;;22.63;;
54201;SDS011;40108;53.152;5.844;2023-04-01T05:44:03;34.20;;;21.67;;
54201;SDS011;40108;53.152;5.844;2023-04-01T05:46:29;34.45;;;21.73;;
54201;SDS011;40108;53.152;5.844;2023-04-01T05:48:55;33.47;;;22.08;;
54201;SDS011;40108;53.152;5.844;2023-04-01T05:51:21;31.85;;;21.75;;
54201;SDS011;40108;53.152;5.844;2023-04-01T05:53:48;32.83;;;21.67;;
54201;SDS011;40108;53.152;5.844;2023-04-01T05:56:14;32.80;;;22.35;;
54201;SDS011;40108;53.152;5.844;2023-04-01T05:58:40;34.65;;;21.55;;
54201;SDS011;40108;53.152;5.844;2023-04-01T06:01:07;32.45;;;20.67;;
54201;SDS011;40108;53.152;5.844;2023-04-01T06:03:34;39.60;;;22.95;;
54201;SDS011;40108;53.152;5.844;2023-04-01T06:06:00;35.65;;;22.55;;
54201;SDS011;40108;53.152;5.844;2023-04-01T06:08:26;33.92;;;21.70;;
54201;SDS011;40108;53.152;5.844;2023-04-01T06:19:24;34.00;;;20.77;;
54201;SDS011;40108;53.152;5.844;2023-04-01T06:36:06;30.40;;;20.02;;
54201;SDS011;40108;53.152;5.844;2023-04-01T06:39:35;33.13;;;21.35;;
54201;SDS011;40108;53.152;5.844;2023-04-01T06:48:11;29.23;;;20.13;;
54201;SDS011;40108;53.152;5.844;2023-04-01T06:53:56;27.10;;;19.17;;
54201;SDS011;40108;53.152;5.844;2023-04-01T06:56:30;31.30;;;19.52;;
54201;SDS011;40108;53.152;5.844;2023-04-01T06:59:02;26.42;;;18.35;;
54201;SDS011;40108;53.152;5.844;2023-04-01T07:01:49;29.25;;;18.75;;
54201;SDS011;40108;53.152;5.844;2023-04-01T07:04:20;25.67;;;17.40;;
54201;SDS011;40108;53.152;5.844;2023-04-01T07:07:19;28.38;;;18.67;;
54201;SDS011;40108;53.152;5.844;2023-04-01T07:09:51;30.38;;;19.10;;
54201;SDS011;40108;53.152;5.844;2023-04-01T07:15:22;26.48;;;17.75;;
54201;SDS011;40108;53.152;5.844;2023-04-01T07:17:58;24.23;;;16.65;;
54201;SDS011;40108;53.152;5.844;2023-04-01T07:20:30;27.75;;;17.63;;
54201;SDS011;40108;53.152;5.844;2023-04-01T07:23:02;27.48;;;18.48;;
54201;SDS011;40108;53.152;5.844;2023-04-01T07:25:37;29.02;;;18.10;;
54201;SDS011;40108;53.152;5.844;2023-04-01T07:28:11;24.85;;;17.75;;
54201;SDS011;40108;53.152;5.844;2023-04-01T07:33:33;30.52;;;18.63;;
54201;SDS011;40108;53.152;5.844;2023-04-01T07:55:22;31.13;;;21.98;;
54201;SDS011;40108;53.152;5.844;2023-04-01T07:58:05;29.73;;;21.50;;
54201;SDS011;40108;53.152;5.844;2023-04-01T08:01:13;26.20;;;19.45;;
54201;SDS011;40108;53.152;5.844;2023-04-01T08:09:14;32.53;;;21.75;;
54201;SDS011;40108;53.152;5.844;2023-04-01T08:14:43;37.03;;;23.60;;
54201;SDS011;40108;53.152;5.844;2023-04-01T08:17:28;45.20;;;25.35;;
54201;SDS011;40108;53.152;5.844;2023-04-01T08:25:29;35.13;;;21.13;;
54201;SDS011;40108;53.152;5.844;2023-04-01T08:28:03;33.97;;;20.38;;
54201;SDS011;40108;53.152;5.844;2023-04-01T08:30:42;35.47;;;19.63;;
54201;SDS011;40108;53.152;5.844;2023-04-01T08:33:19;39.80;;;20.13;;
54201;SDS011;40108;53.152;5.844;2023-04-01T08:36:08;34.55;;;18.33;;
54201;SDS011;40108;53.152;5.844;2023-04-01T08:52:40;18.70;;;12.07;;
54201;SDS011;40108;53.152;5.844;2023-04-01T09:00:57;14.13;;;9.13;;
54201;SDS011;40108;53.152;5.844;2023-04-01T09:06:23;15.43;;;8.35;;
54201;SDS011;40108;53.152;5.844;2023-04-01T09:12:25;14.07;;;8.35;;
54201;SDS011;40108;53.152;5.844;2023-04-01T09:17:54;13.40;;;9.25;;
54201;SDS011;40108;53.152;5.844;2023-04-01T09:20:46;14.88;;;8.95;;
54201;SDS011;40108;53.152;5.844;2023-04-01T09:46:14;7.45;;;4.20;;
54201;SDS011;40108;53.152;5.844;2023-04-01T09:51:55;6.80;;;5.15;;
54201;SDS011;40108;53.152;5.844;2023-04-01T10:14:22;6.75;;;5.35;;
54201;SDS011;40108;53.152;5.844;2023-04-01T10:20:08;10.20;;;6.90;;
54201;SDS011;40108;53.152;5.844;2023-04-01T10:23:07;9.25;;;5.95;;
54201;SDS011;40108;53.152;5.844;2023-04-01T10:48:13;6.97;;;5.68;;
54201;SDS011;40108;53.152;5.844;2023-04-01T11:30:29;5.95;;;3.95;;
54201;SDS011;40108;53.152;5.844;2023-04-01T11:33:35;4.43;;;3.72;;
54201;SDS011;40108;53.152;5.844;2023-04-01T11:41:34;7.55;;;3.78;;
54201;SDS011;40108;53.152;5.844;2023-04-01T11:44:15;4.95;;;3.10;;
54201;SDS011;40108;53.152;5.844;2023-04-01T11:46:52;5.80;;;3.00;;
54201;SDS011;40108;53.152;5.844;2023-04-01T11:49:29;4.50;;;2.50;;
54201;SDS011;40108;53.152;5.844;2023-04-01T11:54:56;3.53;;;2.60;;
54201;SDS011;40108;53.152;5.844;2023-04-01T12:11:25;4.15;;;2.85;;
54201;SDS011;40108;53.152;5.844;2023-04-01T12:14:07;4.43;;;2.47;;
54201;SDS011;40108;53.152;5.844;2023-04-01T12:19:48;3.92;;;2.65;;
54201;SDS011;40108;53.152;5.844;2023-04-01T12:25:21;4.05;;;3.17;;
54201;SDS011;40108;53.152;5.844;2023-04-01T12:27:58;3.97;;;2.70;;
54201;SDS011;40108;53.152;5.844;2023-04-01T12:30:50;3.20;;;2.63;;
54201;SDS011;40108;53.152;5.844;2023-04-01T12:33:45;9.85;;;3.28;;
54201;SDS011;40108;53.152;5.844;2023-04-01T12:36:23;5.03;;;3.00;;
54201;SDS011;40108;53.152;5.844;2023-04-01T12:49:56;3.97;;;3.10;;
54201;SDS011;40108;53.152;5.844;2023-04-01T12:58:10;4.65;;;2.70;;
54201;SDS011;40108;53.152;5.844;2023-04-01T13:12:06;2.72;;;2.15;;
54201;SDS011;40108;53.152;5.844;2023-04-01T13:20:47;3.28;;;2.72;;
54201;SDS011;40108;53.152;5.844;2023-04-01T13:26:07;5.65;;;2.92;;
54201;SDS011;40108;53.152;5.844;2023-04-01T13:31:42;4.00;;;3.55;;
54201;SDS011;40108;53.152;5.844;2023-04-01T13:34:36;2.80;;;2.60;;
54201;SDS011;40108;53.152;5.844;2023-04-01T13:42:51;3.53;;;2.80;;
54201;SDS011;40108;53.152;5.844;2023-04-01T13:45:26;2.63;;;2.42;;
54201;SDS011;40108;53.152;5.844;2023-04-01T13:48:31;3.65;;;1.95;;
54201;SDS011;40108;53.152;5.844;2023-04-01T13:59:40;3.28;;;2.15;;
54201;SDS011;40108;53.152;5.844;2023-04-01T14:05:20;1.85;;;1.73;;
54201;SDS011;40108;53.152;5.844;2023-04-01T14:10:34;4.13;;;2.45;;
54201;SDS011;40108;53.152;5.844;2023-04-01T14:13:21;4.13;;;2.30;;
54201;SDS011;40108;53.152;5.844;2023-04-01T14:16:13;3.60;;;2.17;;
54201;SDS011;40108;53.152;5.844;2023-04-01T14:21:36;3.70;;;1.90;;
54201;SDS011;40108;53.152;5.844;2023-04-01T14:24:14;3.97;;;1.92;;
54201;SDS011;40108;53.152;5.844;2023-04-01T14:26:55;4.78;;;2.25;;
54201;SDS011;40108;53.152;5.844;2023-04-01T14:29:52;5.68;;;1.80;;
54201;SDS011;40108;53.152;5.844;2023-04-01T14:32:51;1.90;;;1.70;;
54201;SDS011;40108;53.152;5.844;2023-04-01T14:35:41;4.05;;;2.25;;
54201;SDS011;40108;53.152;5.844;2023-04-01T14:38:24;7.00;;;2.53;;
54201;SDS011;40108;53.152;5.844;2023-04-01T14:43:30;3.13;;;2.83;;
54201;SDS011;40108;53.152;5.844;2023-04-01T14:49:32;3.85;;;2.05;;
54201;SDS011;40108;53.152;5.844;2023-04-01T14:54:51;2.70;;;1.70;;
54201;SDS011;40108;53.152;5.844;2023-04-01T14:57:28;4.90;;;3.33;;
54201;SDS011;40108;53.152;5.844;2023-04-01T15:00:15;4.75;;;4.15;;
54201;SDS011;40108;53.152;5.844;2023-04-01T15:08:21;2.95;;;2.00;;
54201;SDS011;40108;53.152;5.844;2023-04-01T15:11:12;5.18;;;1.85;;
54201;SDS011;40108;53.152;5.844;2023-04-01T15:13:53;5.35;;;3.00;;
54201;SDS011;40108;53.152;5.844;2023-04-01T15:16:41;4.50;;;2.75;;
54201;SDS011;40108;53.152;5.844;2023-04-01T15:20:10;6.25;;;2.45;;
54201;SDS011;40108;53.152;5.844;2023-04-01T15:22:46;5.05;;;2.13;;
54201;SDS011;40108;53.152;5.844;2023-04-01T15:25:21;4.03;;;2.40;;
54201;SDS011;40108;53.152;5.844;2023-04-01T15:36:18;3.97;;;2.55;;
54201;SDS011;40108;53.152;5.844;2023-04-01T15:38:56;5.18;;;2.63;;
54201;SDS011;40108;53.152;5.844;2023-04-01T15:41:35;3.05;;;2.60;;
54201;SDS011;40108;53.152;5.844;2023-04-01T15:44:46;9.80;;;3.50;;
54201;SDS011;40108;53.152;5.844;2023-04-01T15:47:33;7.38;;;3.05;;
54201;SDS011;40108;53.152;5.844;2023-04-01T15:55:59;7.28;;;3.53;;
54201;SDS011;40108;53.152;5.844;2023-04-01T16:03:54;8.10;;;3.95;;
54201;SDS011;40108;53.152;5.844;2023-04-01T16:06:49;8.50;;;4.07;;
54201;SDS011;40108;53.152;5.844;2023-04-01T16:14:50;7.05;;;4.00;;
54201;SDS011;40108;53.152;5.844;2023-04-01T16:20:20;11.50;;;5.97;;
54201;SDS011;40108;53.152;5.844;2023-04-01T16:25:47;10.02;;;5.55;;
54201;SDS011;40108;53.152;5.844;2023-04-01T16:31:05;9.73;;;4.90;;
54201;SDS011;40108;53.152;5.844;2023-04-01T16:36:28;11.40;;;5.20;;
54201;SDS011;40108;53.152;5.844;2023-04-01T16:42:28;10.05;;;5.97;;
54201;SDS011;40108;53.152;5.844;2023-04-01T16:48:28;11.23;;;6.22;;
54201;SDS011;40108;53.152;5.844;2023-04-01T16:50:55;11.23;;;5.82;;
54201;SDS011;40108;53.152;5.844;2023-04-01T16:53:36;11.15;;;5.40;;
54201;SDS011;40108;53.152;5.844;2023-04-01T16:58:42;10.52;;;5.72;;
54201;SDS011;40108;53.152;5.844;2023-04-01T17:01:30;11.55;;;5.40;;
54201;SDS011;40108;53.152;5.844;2023-04-01T17:04:24;10.02;;;5.65;;
54201;SDS011;40108;53.152;5.844;2023-04-01T17:10:00;23.08;;;12.15;;
54201;SDS011;40108;53.152;5.844;2023-04-01T17:20:43;19.10;;;9.05;;
54201;SDS011;40108;53.152;5.844;2023-04-01T17:23:37;17.50;;;10.52;;
54201;SDS011;40108;53.152;5.844;2023-04-01T17:26:16;11.95;;;7.55;;
54201;SDS011;40108;53.152;5.844;2023-04-01T17:36:58;13.50;;;6.97;;
54201;SDS011;40108;53.152;5.844;2023-04-01T17:45:28;16.65;;;10.60;;
54201;SDS011;40108;53.152;5.844;2023-04-01T17:48:08;14.57;;;8.77;;
54201;SDS011;40108;53.152;5.844;2023-04-01T17:50:53;13.95;;;6.90;;
54201;SDS011;40108;53.152;5.844;2023-04-01T18:04:40;9.38;;;6.53;;
54201;SDS011;40108;53.152;5.844;2023-04-01T18:15:37;12.15;;;6.60;;
54201;SDS011;40108;53.152;5.844;2023-04-01T18:21:02;8.18;;;5.20;;
54201;SDS011;40108;53.152;5.844;2023-04-01T18:23:51;11.32;;;6.15;;
54201;SDS011;40108;53.152;5.844;2023-04-01T18:31:44;10.48;;;4.53;;
54201;SDS011;40108;53.152;5.844;2023-04-01T18:40:18;13.52;;;6.28;;
54201;SDS011;40108;53.152;5.844;2023-04-01T18:43:00;12.00;;;6.07;;
54201;SDS011;40108;53.152;5.844;2023-04-01T18:45:54;11.65;;;6.32;;
54201;SDS011;40108;53.152;5.844;2023-04-01T18:51:13;11.02;;;5.40;;
54201;SDS011;40108;53.152;5.844;2023-04-01T18:54:19;11.52;;;6.30;;
54201;SDS011;40108;53.152;5.844;2023-04-01T18:57:01;11.85;;;6.13;;
54201;SDS011;40108;53.152;5.844;2023-04-01T18:59:39;13.98;;;6.72;;
54201;SDS011;40108;53.152;5.844;2023-04-01T19:04:57;20.23;;;7.00;;
54201;SDS011;40108;53.152;5.844;2023-04-01T19:12:46;15.70;;;7.93;;
54201;SDS011;40108;53.152;5.844;2023-04-01T19:15:24;13.65;;;7.45;;
54201;SDS011;40108;53.152;5.844;2023-04-01T19:18:25;12.85;;;6.32;;
54201;SDS011;40108;53.152;5.844;2023-04-01T19:21:07;12.88;;;6.70;;
54201;SDS011;40108;53.152;5.844;2023-04-01T19:26:39;10.90;;;6.88;;
54201;SDS011;40108;53.152;5.844;2023-04-01T19:32:01;17.25;;;7.75;;
54201;SDS011;40108;53.152;5.844;2023-04-01T19:37:28;14.15;;;6.18;;
54201;SDS011;40108;53.152;5.844;2023-04-01T19:42:40;13.73;;;7.50;;
54201;SDS011;40108;53.152;5.844;2023-04-01T19:53:28;14.82;;;6.78;;
54201;SDS011;40108;53.152;5.844;2023-04-01T19:58:51;13.32;;;6.68;;
54201;SDS011;40108;53.152;5.844;2023-04-01T20:01:34;13.15;;;8.55;;
54201;SDS011;40108;53.152;5.844;2023-04-01T20:04:24;22.27;;;8.68;;
54201;SDS011;40108;53.152;5.844;2023-04-01T20:12:47;18.88;;;8.98;;
54201;SDS011;40108;53.152;5.844;2023-04-01T20:15:45;16.65;;;8.05;;
54201;SDS011;40108;53.152;5.844;2023-04-01T20:18:22;13.27;;;8.07;;
54201;SDS011;40108;53.152;5.844;2023-04-01T20:21:00;15.10;;;7.25;;
54201;SDS011;40108;53.152;5.844;2023-04-01T20:23:35;16.55;;;7.72;;
54201;SDS011;40108;53.152;5.844;2023-04-01T20:26:11;19.25;;;7.50;;
54201;SDS011;40108;53.152;5.844;2023-04-01T20:36:41;18.25;;;8.55;;
54201;SDS011;40108;53.152;5.844;2023-04-01T20:39:34;16.85;;;8.40;;
54201;SDS011;40108;53.152;5.844;2023-04-01T20:42:29;21.33;;;8.05;;
54201;SDS011;40108;53.152;5.844;2023-04-01T20:50:37;14.82;;;7.22;;
54201;SDS011;40108;53.152;5.844;2023-04-01T20:53:11;14.73;;;7.15;;
54201;SDS011;40108;53.152;5.844;2023-04-01T21:01:39;16.08;;;7.45;;
54201;SDS011;40108;53.152;5.844;2023-04-01T21:07:20;13.40;;;7.15;;
54201;SDS011;40108;53.152;5.844;2023-04-01T21:21:16;14.07;;;6.85;;
54201;SDS011;40108;53.152;5.844;2023-04-01T21:34:40;15.65;;;4.63;;
54201;SDS011;40108;53.152;5.844;2023-04-01T22:05:49;11.80;;;5.60;;
54201;SDS011;40108;53.152;5.844;2023-04-01T22:13:39;11.70;;;5.07;;
54201;SDS011;40108;53.152;5.844;2023-04-01T22:21:36;15.83;;;5.53;;
54201;SDS011;40108;53.152;5.844;2023-04-01T22:29:53;10.52;;;4.68;;
54201;SDS011;40108;53.152;5.844;2023-04-01T22:32:52;9.60;;;4.70;;
54201;SDS011;40108;53.152;5.844;2023-04-01T22:43:34;13.15;;;4.80;;
54201;SDS011;40108;53.152;5.844;2023-04-01T22:46:07;15.15;;;5.07;;
54201;SDS011;40108;53.152;5.844;2023-04-01T22:49:13;13.40;;;4.38;;
54201;SDS011;40108;53.152;5.844;2023-04-01T22:51:54;9.00;;;4.28;;
54201;SDS011;40108;53.152;5.844;2023-04-01T22:54:37;12.38;;;4.38;;
54201;SDS011;40108;53.152;5.844;2023-04-01T22:57:14;9.38;;;4.32;;
54201;SDS011;40108;53.152;5.844;2023-04-01T22:59:48;12.00;;;4.57;;
54201;SDS011;40108;53.152;5.844;2023-04-01T23:02:21;14.07;;;4.45;;
54201;SDS011;40108;53.152;5.844;2023-04-01T23:10:15;7.07;;;4.15;;
54201;SDS011;40108;53.152;5.844;2023-04-01T23:12:43;10.07;;;4.60;;
54201;SDS011;40108;53.152;5.844;2023-04-01T23:15:11;9.45;;;4.25;;
54201;SDS011;40108;53.152;5.844;2023-04-01T23:17:41;11.20;;;4.38;;
54201;SDS011;40108;53.152;5.844;2023-04-01T23:20:33;9.45;;;4.85;;
54201;SDS011;40108;53.152;5.844;2023-04-01T23:28:45;7.97;;;3.72;;
54201;SDS011;40108;53.152;5.844;2023-04-01T23:34:32;10.70;;;3.85;;
54201;SDS011;40108;53.152;5.844;2023-04-01T23:37:04;10.88;;;3.97;;
54201;SDS011;40108;53.152;5.844;2023-04-01T23:39:37;12.68;;;3.90;;
54201;SDS011;40108;53.152;5.844;2023-04-01T23:44:49;7.20;;;4.07;;
54201;SDS011;40108;53.152;5.844;2023-04-01T23:47:22;6.97;;;4.07;;
54201;SDS011;40108;53.152;5.844;2023-04-01T23:49:52;8.02;;;3.63;;
54201;SDS011;40108;53.152;5.844;2023-04-01T23:52:28;9.90;;;3.70;;
54201;SDS011;40108;53.152;5.844;2023-04-01T23:55:19;10.77;;;3.78;;
54201;SDS011;40108;53.152;5.844;2023-04-01T23:58:14;10.05;;;3.20;;
